Time;durP1;ratioP1;P1;durP2;ratioP2;P2;SDS_P1;SDS_P2;PMS_P1;PMS_P2;Temp;Humidity;BMP_temperature;BMP_pressure;BME280_temperature;BME280_humidity;BME280_pressure;Samples;Min_cycle;Max_cycle;Signal;HPM_P1;HPM_P2
2022/05/24 00:00:58;;;;;;;6.57;3.70;;;;;;;22.81;45.67;94159.63;5010313;28;20292;-82
2022/05/24 00:03:25;;;;;;;5.18;3.65;;;;;;;22.88;45.75;94165.50;5010439;28;20196;-82
2022/05/24 00:05:52;;;;;;;4.80;3.50;;;;;;;22.86;45.72;94167.56;5010229;28;20699;-82
2022/05/24 00:08:18;;;;;;;4.57;4.05;;;;;;;22.85;45.98;94158.16;5010562;28;20594;-82
2022/05/24 00:10:45;;;;;;;5.18;3.85;;;;;;;22.69;46.00;94134.31;5010290;28;20225;-81
2022/05/24 00:13:12;;;;;;;5.47;4.57;;;;;;;22.75;46.04;94146.47;5045135;28;20201;-81
2022/05/24 00:15:40;;;;;;;4.80;4.05;;;;;;;21.86;46.01;94018.00;5091981;28;20256;-82
2022/05/24 00:18:12;;;;;;;9.90;4.05;;;;;;;22.80;46.08;94158.84;5092576;28;20662;-80
2022/05/24 00:20:42;;;;;;;4.57;4.18;;;;;;;22.80;46.06;94158.84;5092524;28;20193;-80
2022/05/24 00:23:10;;;;;;;6.25;3.95;;;;;;;22.26;46.18;94085.13;5092627;28;20193;-81
2022/05/24 00:25:39;;;;;;;5.25;3.70;;;;;;;22.75;46.17;94166.50;5101525;28;20194;-82
2022/05/24 00:28:07;;;;;;;4.07;3.67;;;;;;;22.45;46.38;94133.53;5096449;28;20660;-83
2022/05/24 00:30:35;;;;;;;5.72;3.75;;;;;;;22.61;46.93;94168.53;5092757;28;20177;-79
2022/05/24 00:33:02;;;;;;;6.65;3.70;;;;;;;22.53;47.06;94161.06;5092048;28;20225;-81
2022/05/24 00:35:30;;;;;;;6.07;4.07;;;;;;;22.62;47.22;94185.75;5091465;28;20260;-78
2022/05/24 00:37:57;;;;;;;5.15;4.60;;;;;;;22.44;46.96;94152.75;5091880;28;20189;-80
2022/05/24 00:40:34;;;;;;;4.63;4.10;;;;;;;22.58;47.18;94179.41;5092214;28;20186;-81
2022/05/24 00:43:04;;;;;;;5.05;4.05;;;;;;;22.16;46.95;94127.34;5091557;28;20185;-81
2022/05/24 00:45:33;;;;;;;5.03;4.10;;;;;;;22.52;47.04;94183.72;5091806;28;20646;-82
2022/05/24 00:48:04;;;;;;;4.90;3.80;;;;;;;22.50;47.25;94177.94;5091662;28;20672;-80
2022/05/24 00:50:37;;;;;;;6.60;4.57;;;;;;;22.48;47.40;94187.78;5091871;28;20237;-81
2022/05/24 00:53:08;;;;;;;4.28;3.85;;;;;;;22.32;47.39;94164.19;5091365;28;20247;-81
2022/05/24 00:55:46;;;;;;;5.05;3.70;;;;;;;22.45;47.05;94184.81;5091508;28;20775;-79
2022/05/24 00:58:18;;;;;;;7.22;4.45;;;;;;;22.43;47.62;94185.06;5091669;28;20657;-81
2022/05/24 01:00:46;;;;;;;5.50;4.10;;;;;;;22.41;47.50;94184.50;5091530;28;20189;-82
2022/05/24 01:03:13;;;;;;;6.72;3.53;;;;;;;22.40;47.54;94184.72;5091448;28;20665;-81
2022/05/24 01:05:42;;;;;;;5.47;4.20;;;;;;;22.38;47.48;94187.53;5091203;28;20254;-80
2022/05/24 01:08:10;;;;;;;5.20;3.80;;;;;;;22.39;47.30;94186.53;5091185;28;20668;-83
2022/05/24 01:10:44;;;;;;;4.30;3.50;;;;;;;22.16;47.41;94156.00;5091733;28;20188;-80
2022/05/24 01:13:15;;;;;;;5.53;3.92;;;;;;;22.10;47.64;94151.63;5090896;28;20676;-81
2022/05/24 01:15:44;;;;;;;4.43;4.03;;;;;;;22.35;47.47;94190.59;5091098;28;20742;-80
2022/05/24 01:18:11;;;;;;;4.38;3.97;;;;;;;21.83;47.75;94113.97;5090820;28;20198;-82
2022/05/24 01:20:39;;;;;;;5.35;4.00;;;;;;;22.32;47.66;94187.63;5091286;28;20580;-82
2022/05/24 01:23:18;;;;;;;7.93;3.70;;;;;;;22.31;47.41;94192.03;5091029;28;20188;-82
2022/05/24 01:25:56;;;;;;;8.13;3.73;;;;;;;22.29;47.63;94187.06;5091211;28;20216;-83
2022/05/24 01:28:29;;;;;;;4.57;4.00;;;;;;;22.27;47.52;94194.28;5091230;28;20266;-80
2022/05/24 01:30:57;;;;;;;6.47;3.63;;;;;;;22.05;47.63;94154.13;5090536;28;20239;-80
2022/05/24 01:36:13;;;;;;;5.20;4.03;;;;;;;22.22;47.56;94167.34;5091037;28;20216;-78
2022/05/24 01:38:44;;;;;;;6.47;4.10;;;;;;;22.21;47.63;94163.94;5091896;28;20197;-78
2022/05/24 01:41:15;;;;;;;4.33;3.70;;;;;;;22.20;47.61;94170.16;5090642;28;20190;-81
2022/05/24 01:43:43;;;;;;;4.00;3.60;;;;;;;22.05;47.71;94154.13;5090720;28;20668;-82
2022/05/24 01:46:13;;;;;;;3.97;3.45;;;;;;;22.16;47.63;94163.03;5090745;28;20232;-82
2022/05/24 01:48:46;;;;;;;4.40;3.13;;;;;;;22.13;47.69;94169.47;5090154;28;20190;-82
2022/05/24 01:51:16;;;;;;;6.67;3.50;;;;;;;22.11;47.73;94168.88;5090494;28;20618;-81
2022/05/24 01:53:46;;;;;;;4.73;3.40;;;;;;;22.11;47.66;94183.72;5090511;28;20189;-82
2022/05/24 01:56:17;;;;;;;5.88;3.67;;;;;;;22.06;47.76;94173.94;5090174;28;20213;-81
2022/05/24 01:58:50;;;;;;;5.47;3.63;;;;;;;22.03;47.87;94183.00;5090358;28;20194;-81
2022/05/24 02:01:27;;;;;;;3.93;3.50;;;;;;;22.02;47.72;94184.00;5090309;28;20186;-78
2022/05/24 02:03:54;;;;;;;6.47;3.42;;;;;;;22.01;47.75;94198.03;5090423;28;20201;-81
2022/05/24 02:06:24;;;;;;;5.00;3.20;;;;;;;21.99;47.77;94199.28;5089829;28;20688;-83
2022/05/24 02:08:52;;;;;;;5.67;3.20;;;;;;;21.99;47.74;94196.66;5090755;28;20193;-81
2022/05/24 02:11:23;;;;;;;3.90;3.10;;;;;;;21.74;47.78;94158.53;5090243;28;20189;-80
2022/05/24 02:13:54;;;;;;;3.40;3.10;;;;;;;21.96;47.71;94197.91;5090215;28;20198;-81
2022/05/24 02:16:24;;;;;;;3.15;2.85;;;;;;;21.94;47.83;94196.53;5089847;28;20758;-80
2022/05/24 02:18:54;;;;;;;4.57;3.10;;;;;;;21.92;48.06;94199.34;5090590;28;20185;-80
2022/05/24 02:21:21;;;;;;;5.85;3.30;;;;;;;21.91;47.99;94197.75;5089991;28;20969;-82
2022/05/24 02:23:50;;;;;;;4.73;3.37;;;;;;;21.78;47.87;94175.28;5090597;28;20247;-80
2022/05/24 02:26:18;;;;;;;8.20;3.20;;;;;;;21.89;47.94;94184.19;5090424;28;20185;-81
2022/05/24 02:28:45;;;;;;;3.63;3.33;;;;;;;21.88;47.98;94169.56;5090239;28;20295;-80
2022/05/24 02:31:18;;;;;;;6.60;2.93;;;;;;;21.78;48.07;94148.47;5090581;28;20204;-79
2022/05/24 02:33:46;;;;;;;3.35;3.03;;;;;;;21.85;48.06;94158.78;5091959;28;20317;-80
2022/05/24 02:36:14;;;;;;;8.17;3.40;;;;;;;21.68;48.22;94141.19;5089926;28;20260;-80
2022/05/24 02:38:41;;;;;;;4.63;3.53;;;;;;;21.81;48.36;94179.28;5090531;28;20182;-80
2022/05/24 02:43:51;;;;;;;4.37;2.83;;;;;;;21.77;48.40;94197.13;5089886;28;20200;-82
2022/05/24 02:46:20;;;;;;;3.70;3.05;;;;;;;21.74;48.75;94204.59;5089737;28;20197;-79
2022/05/24 02:48:47;;;;;;;5.10;3.30;;;;;;;21.72;48.78;94212.63;5090002;28;20703;-80
2022/05/24 02:51:16;;;;;;;4.40;2.87;;;;;;;21.71;48.75;94210.22;5089856;28;20274;-79
2022/05/24 02:53:44;;;;;;;3.60;2.85;;;;;;;21.69;49.25;94201.84;5090296;28;20186;-79
2022/05/24 02:56:11;;;;;;;4.90;3.43;;;;;;;21.60;48.95;94179.75;5094992;28;20236;-79
2022/05/24 02:58:38;;;;;;;4.63;3.57;;;;;;;21.69;48.92;94196.66;5093056;28;20200;-80
2022/05/24 03:01:11;;;;;;;5.00;3.27;;;;;;;21.67;48.89;94201.25;5094327;28;20193;-81
2022/05/24 03:03:42;;;;;;;4.73;3.13;;;;;;;21.65;49.17;94209.28;5093970;28;20284;-81
2022/05/24 03:06:09;;;;;;;3.53;3.20;;;;;;;21.64;49.38;94214.72;5094021;28;20254;-81
2022/05/24 03:11:20;;;;;;;5.60;2.97;;;;;;;21.58;49.39;94200.75;5093306;28;20279;-78
2022/05/24 03:16:32;;;;;;;5.00;3.08;;;;;;;21.44;49.62;94181.91;5093939;28;20212;-81
2022/05/24 03:19:00;;;;;;;5.17;3.10;;;;;;;21.56;49.88;94209.81;5097304;28;20197;-81
2022/05/24 03:21:27;;;;;;;6.23;3.00;;;;;;;21.42;49.78;94186.53;5097705;28;20575;-80
2022/05/24 03:23:54;;;;;;;5.73;3.37;;;;;;;21.58;50.08;94207.75;5094036;28;20192;-81
2022/05/24 03:26:20;;;;;;;3.93;2.67;;;;;;;21.57;49.96;94204.38;5093222;28;20247;-81
2022/05/24 03:28:48;;;;;;;5.70;2.97;;;;;;;21.26;49.95;94150.66;5093468;28;20627;-81
2022/05/24 03:31:16;;;;;;;3.97;3.20;;;;;;;21.58;49.87;94187.75;5093388;28;20193;-81
2022/05/24 03:33:43;;;;;;;3.17;2.93;;;;;;;21.59;49.81;94184.16;5093276;28;20287;-79
2022/05/24 03:36:11;;;;;;;6.70;3.27;;;;;;;21.55;49.97;94183.00;5093402;28;20233;-81
2022/05/24 03:38:38;;;;;;;4.20;2.70;;;;;;;21.49;49.98;94179.44;5092914;28;20182;-81
2022/05/24 03:41:06;;;;;;;4.13;2.80;;;;;;;21.64;49.94;94199.09;5092934;28;20239;-81
2022/05/24 03:43:33;;;;;;;3.47;2.93;;;;;;;21.54;49.98;94181.38;5093028;28;20178;-80
2022/05/24 03:46:05;;;;;;;4.40;2.87;;;;;;;21.56;50.05;94184.56;5093303;28;20201;-84
2022/05/24 03:48:32;;;;;;;4.93;3.00;;;;;;;21.24;50.06;94131.88;5093293;28;20188;-81
2022/05/24 03:50:59;;;;;;;3.73;2.97;;;;;;;21.67;49.86;94194.25;5092904;28;20200;-81
2022/05/24 03:53:27;;;;;;;3.33;2.95;;;;;;;21.79;49.85;94204.72;5092453;28;20189;-81
2022/05/24 03:55:55;;;;;;;4.53;3.08;;;;;;;21.35;50.03;94131.19;5092556;28;20251;-79
2022/05/24 03:58:22;;;;;;;5.97;3.17;;;;;;;21.90;49.82;94211.00;5092241;28;20193;-81
2022/05/24 04:00:49;;;;;;;9.10;3.65;;;;;;;21.88;49.97;94193.00;5092596;28;20196;-82
2022/05/24 04:03:16;;;;;;;3.80;2.87;;;;;;;22.02;49.73;94214.44;5092422;28;20188;-80
2022/05/24 04:05:44;;;;;;;7.30;3.80;;;;;;;21.95;49.80;94198.91;5093920;28;20244;-80
2022/05/24 04:08:11;;;;;;;5.18;3.10;;;;;;;22.15;49.81;94224.75;5092560;28;20189;-82
2022/05/24 04:10:39;;;;;;;8.55;3.20;;;;;;;22.10;50.13;94208.94;5091964;28;20244;-85
2022/05/24 04:13:07;;;;;;;4.53;3.40;;;;;;;22.27;49.98;94230.75;5092729;28;20197;-80
2022/05/24 04:15:34;;;;;;;5.18;3.65;;;;;;;21.80;50.12;94151.63;5091936;28;20200;-81
2022/05/24 04:18:01;;;;;;;4.57;3.50;;;;;;;22.35;50.38;94226.28;5092459;28;20225;-82
2022/05/24 04:20:29;;;;;;;4.80;3.72;;;;;;;22.30;50.30;94208.69;5092048;28;20204;-81
2022/05/24 04:22:57;;;;;;;6.05;3.22;;;;;;;22.34;50.12;94206.44;5092488;28;20190;-80
2022/05/24 04:25:25;;;;;;;5.13;3.70;;;;;;;22.54;50.04;94233.81;5092734;28;20646;-81
2022/05/24 04:27:54;;;;;;;6.13;3.30;;;;;;;22.62;49.75;94231.88;5092226;28;20190;-81
2022/05/24 04:30:21;;;;;;;3.75;3.40;;;;;;;22.73;49.47;94229.31;5092162;28;20229;-82
2022/05/24 04:32:48;;;;;;;5.75;3.60;;;;;;;22.86;49.24;94225.72;5091927;28;20194;-81
2022/05/24 04:35:15;;;;;;;4.35;3.63;;;;;;;22.98;48.93;94229.16;5091886;28;20212;-81
2022/05/24 04:37:42;;;;;;;5.07;3.30;;;;;;;23.10;48.99;94229.19;5092238;28;20219;-80
2022/05/24 04:40:09;;;;;;;4.80;3.15;;;;;;;23.22;49.02;94224.72;5091775;28;20194;-82
2022/05/24 04:42:35;;;;;;;6.30;3.25;;;;;;;23.24;48.93;94212.25;5092138;28;20217;-80
2022/05/24 04:45:06;;;;;;;7.28;3.10;;;;;;;23.32;48.98;94197.28;5091598;28;20229;-83
2022/05/24 04:47:34;;;;;;;6.78;3.30;;;;;;;23.54;49.09;94213.94;5091535;28;20189;-81
2022/05/24 04:50:05;;;;;;;4.35;3.25;;;;;;;23.65;49.00;94220.19;5091720;28;20625;-83
2022/05/24 04:52:34;;;;;;;7.93;3.63;;;;;;;23.78;48.89;94223.31;5091774;28;20189;-83
2022/05/24 04:55:01;;;;;;;3.72;3.05;;;;;;;23.93;49.01;94230.69;5091898;28;20190;-80
2022/05/24 04:57:28;;;;;;;4.22;3.40;;;;;;;24.08;48.78;94234.59;5091649;28;20248;-82
2022/05/24 04:59:55;;;;;;;6.50;3.17;;;;;;;24.22;48.75;94236.72;5092028;28;20197;-82
2022/05/24 05:02:23;;;;;;;5.30;2.90;;;;;;;24.34;48.54;94241.88;5091303;28;20588;-81
2022/05/24 05:04:50;;;;;;;6.15;3.08;;;;;;;24.47;48.44;94253.91;5091193;28;20220;-82
2022/05/24 05:07:19;;;;;;;5.28;3.25;;;;;;;24.65;48.52;94253.69;5090770;28;20200;-80
2022/05/24 05:09:47;;;;;;;9.00;3.75;;;;;;;24.56;48.87;94200.22;5091338;28;20272;-81
2022/05/24 05:12:14;;;;;;;7.85;3.22;;;;;;;25.22;49.06;94264.09;5090773;28;20649;-81
2022/05/24 05:14:42;;;;;;;5.32;3.63;;;;;;;25.60;49.17;94261.72;5091051;28;20190;-80
2022/05/24 05:17:09;;;;;;;10.93;4.20;;;;;;;25.83;49.14;94240.59;5090983;28;21138;-80
2022/05/24 05:19:38;;;;;;;5.40;2.83;;;;;;;26.35;49.03;94228.84;5090693;28;20280;-81
2022/05/24 05:22:05;;;;;;;8.02;3.78;;;;;;;26.88;48.25;94233.28;5090598;28;20205;-79
2022/05/24 05:24:33;;;;;;;3.45;3.10;;;;;;;27.70;46.86;94274.06;5091155;28;20273;-81
2022/05/24 05:26:59;;;;;;;4.53;3.03;;;;;;;28.13;45.33;94274.03;5091231;28;20182;-80
2022/05/24 05:32:17;;;;;;;6.22;3.17;;;;;;;28.95;43.86;94275.03;5100341;28;20197;-81
2022/05/24 05:34:46;;;;;;;4.95;3.13;;;;;;;29.37;43.21;94282.69;5093780;28;20217;-81
2022/05/24 05:37:14;;;;;;;3.67;3.17;;;;;;;29.82;42.56;94291.59;5093639;28;20302;-82
2022/05/24 05:39:41;;;;;;;5.35;3.30;;;;;;;30.28;41.71;94286.22;5098804;28;20193;-80
2022/05/24 05:42:08;;;;;;;5.05;2.95;;;;;;;30.77;41.51;94297.84;5091008;28;20200;-80
2022/05/24 05:44:35;;;;;;;5.85;3.10;;;;;;;31.25;40.82;94285.63;5090905;28;20178;-79
2022/05/24 05:47:02;;;;;;;4.15;3.13;;;;;;;31.75;40.04;94288.91;5090496;28;20268;-81
2022/05/24 05:49:29;;;;;;;6.40;3.00;;;;;;;32.26;39.26;94295.53;5090239;28;20201;-80
2022/05/24 05:51:57;;;;;;;3.33;2.90;;;;;;;32.78;38.09;94291.94;5092830;28;20182;-81
2022/05/24 05:54:24;;;;;;;6.78;2.90;;;;;;;33.16;37.39;94279.47;5090472;28;20554;-81
2022/05/24 05:56:52;;;;;;;5.25;3.28;;;;;;;33.80;36.80;94302.81;5090577;28;20624;-78
2022/05/24 05:59:19;;;;;;;3.55;2.92;;;;;;;34.10;35.88;94277.59;5089793;28;20576;-80
2022/05/24 06:01:46;;;;;;;4.32;3.15;;;;;;;34.62;35.03;94288.78;5090330;28;20196;-80
2022/05/24 06:04:13;;;;;;;8.40;2.88;;;;;;;34.99;34.39;94274.44;5090112;28;20185;-79
2022/05/24 06:06:44;;;;;;;7.10;3.45;;;;;;;35.69;33.81;94310.25;5090188;28;20217;-80
2022/05/24 06:09:12;;;;;;;4.97;2.67;;;;;;;35.89;33.42;94274.34;5090115;28;20401;-80
2022/05/24 06:11:40;;;;;;;5.18;2.80;;;;;;;36.56;32.62;94315.94;5090191;28;20233;-79
2022/05/24 06:14:07;;;;;;;5.22;2.92;;;;;;;36.95;32.04;94325.75;5089765;28;20203;-81
2022/05/24 06:16:35;;;;;;;5.70;3.20;;;;;;;37.34;31.47;94330.13;5090355;28;20190;-81
2022/05/24 06:19:02;;;;;;;5.72;3.38;;;;;;;37.64;30.89;94320.38;5089728;28;20550;-81
2022/05/24 06:21:33;;;;;;;5.35;3.33;;;;;;;38.04;30.47;94330.81;5090036;28;20190;-80
2022/05/24 06:24:00;;;;;;;7.30;2.90;;;;;;;38.35;29.91;94324.44;5090029;28;20251;-79
2022/05/24 06:26:28;;;;;;;7.68;3.03;;;;;;;38.38;29.44;94286.34;5090134;28;20216;-80
2022/05/24 06:28:56;;;;;;;9.43;2.97;;;;;;;38.85;29.33;94312.97;5089874;28;20194;-80
2022/05/24 06:31:22;;;;;;;6.35;2.70;;;;;;;38.90;28.82;94269.97;5090308;28;20254;-81
2022/05/24 06:33:49;;;;;;;5.10;2.92;;;;;;;39.01;28.52;94235.59;5090967;28;20232;-79
2022/05/24 06:36:17;;;;;;;6.97;2.90;;;;;;;39.44;28.14;94259.28;5094447;28;20209;-79
2022/05/24 06:38:43;;;;;;;7.18;2.75;;;;;;;40.04;27.81;94303.38;5094498;28;20225;-79
2022/05/24 06:41:11;;;;;;;3.10;2.50;;;;;;;40.27;27.33;94306.41;5094003;28;20288;-78
2022/05/24 06:43:39;;;;;;;5.00;2.97;;;;;;;40.51;27.31;94291.44;5094018;28;20192;-79
2022/05/24 06:46:08;;;;;;;5.22;3.45;;;;;;;40.71;26.76;94293.19;5094244;28;20233;-79
2022/05/24 06:48:36;;;;;;;4.13;2.78;;;;;;;40.92;26.68;94303.78;5093977;28;20622;-79
2022/05/24 06:51:10;;;;;;;3.58;2.70;;;;;;;41.08;26.25;94287.78;5093754;28;20193;-79
2022/05/24 06:53:37;;;;;;;6.88;3.22;;;;;;;41.33;26.03;94291.91;5093890;28;20186;-79
2022/05/24 06:56:04;;;;;;;3.78;2.95;;;;;;;41.52;26.13;94298.56;5093708;28;20216;-79
2022/05/24 06:58:31;;;;;;;6.22;3.20;;;;;;;41.02;25.90;94198.69;5094091;28;20308;-78
2022/05/24 07:03:44;;;;;;;6.80;3.20;;;;;;;41.94;25.48;94279.31;5100367;28;20227;-80
2022/05/24 07:06:12;;;;;;;4.28;3.28;;;;;;;42.12;25.16;94285.88;5094313;28;20190;-80
2022/05/24 07:08:39;;;;;;;3.70;3.22;;;;;;;42.24;24.86;94285.81;5093876;28;20192;-80
2022/05/24 07:11:06;;;;;;;3.15;2.85;;;;;;;42.32;25.04;94278.69;5093646;28;20208;-78
2022/05/24 07:13:33;;;;;;;5.57;3.45;;;;;;;42.49;24.70;94296.34;5093888;28;20189;-80
2022/05/24 07:16:01;;;;;;;3.47;3.05;;;;;;;41.87;22.89;94244.19;5095478;28;20571;-92
2022/05/24 07:18:28;;;;;;;4.68;3.72;;;;;;;41.52;23.31;94307.41;5095051;28;20696;-88
2022/05/24 07:20:55;;;;;;;2.95;2.25;;;;;;;41.22;23.62;94306.94;5093435;28;20284;-79
2022/05/24 07:23:24;;;;;;;5.18;2.80;;;;;;;41.00;24.32;94289.47;5093536;28;20189;-82
2022/05/24 07:25:52;;;;;;;2.95;2.65;;;;;;;41.06;24.52;94301.50;5093445;28;20188;-81
2022/05/24 07:28:20;;;;;;;5.60;3.20;;;;;;;41.19;24.97;94301.47;5093818;28;20216;-82
2022/05/24 07:30:48;;;;;;;3.63;3.05;;;;;;;41.27;24.58;94304.00;5093441;28;20197;-81
2022/05/24 07:33:16;;;;;;;4.35;3.80;;;;;;;41.38;25.25;94301.66;5093187;28;20229;-81
2022/05/24 07:35:44;;;;;;;4.18;3.08;;;;;;;41.50;24.63;94304.28;5092821;28;20225;-81
2022/05/24 07:38:12;;;;;;;4.82;3.28;;;;;;;41.64;24.62;94293.13;5092884;28;20221;-81
2022/05/24 07:46:11;;;;;;;6.97;3.35;;;;;;;41.66;24.34;94255.94;5091528;28;20680;-81
2022/05/24 07:48:40;;;;;;;6.38;3.25;;;;;;;42.02;24.73;94289.09;5092687;28;20190;-80
2022/05/24 07:51:08;;;;;;;7.88;3.60;;;;;;;41.90;24.54;94276.53;5092935;28;20193;-81
2022/05/24 07:53:35;;;;;;;7.15;3.60;;;;;;;41.82;24.70;94245.25;5092903;28;20193;-79
2022/05/24 07:56:02;;;;;;;6.80;3.97;;;;;;;42.18;24.37;94292.53;5092579;28;20641;-80
2022/05/24 07:58:30;;;;;;;5.28;3.40;;;;;;;42.19;24.21;94286.06;5092630;28;20225;-79
2022/05/24 08:00:58;;;;;;;8.60;3.97;;;;;;;42.16;24.43;94278.69;5092457;28;20185;-81
2022/05/24 08:03:25;;;;;;;7.28;3.55;;;;;;;42.15;24.28;94269.06;5092637;28;20644;-79
2022/05/24 08:05:54;;;;;;;4.68;3.50;;;;;;;42.14;24.49;94283.63;5092750;28;20193;-81
2022/05/24 08:08:21;;;;;;;4.05;3.70;;;;;;;42.15;24.17;94284.41;5092875;28;20568;-80
2022/05/24 08:10:48;;;;;;;3.33;3.03;;;;;;;42.15;24.38;94285.19;5101062;28;20188;-80
2022/05/24 08:13:19;;;;;;;4.85;3.67;;;;;;;42.15;24.42;94285.19;5102585;28;20280;-82
2022/05/24 08:15:46;;;;;;;4.25;3.65;;;;;;;42.14;24.15;94285.53;5092771;28;20235;-82
2022/05/24 08:18:13;;;;;;;5.78;3.83;;;;;;;42.17;24.13;94290.22;5092309;28;20220;-81
2022/05/24 08:20:40;;;;;;;3.67;3.30;;;;;;;42.09;24.11;94284.66;5092390;28;20192;-81
2022/05/24 08:23:09;;;;;;;4.05;3.55;;;;;;;42.14;24.35;94293.59;5092466;28;20186;-82
2022/05/24 08:25:37;;;;;;;5.63;3.60;;;;;;;42.13;24.13;94294.72;5092410;28;20656;-83
2022/05/24 08:28:07;;;;;;;8.27;3.75;;;;;;;42.09;24.27;94281.97;5092159;28;20190;-80
2022/05/24 08:30:36;;;;;;;5.78;3.75;;;;;;;42.06;24.31;94282.69;5092336;28;20193;-81
2022/05/24 08:33:04;;;;;;;5.00;3.70;;;;;;;42.03;24.41;94277.22;5092267;28;20233;-81
2022/05/24 08:35:32;;;;;;;5.18;3.60;;;;;;;41.98;24.22;94280.19;5093463;28;20199;-80
2022/05/24 08:37:59;;;;;;;3.85;3.40;;;;;;;41.81;24.36;94265.19;5092093;28;20213;-80
2022/05/24 08:40:27;;;;;;;4.80;3.33;;;;;;;41.85;24.08;94276.78;5093336;28;20186;-81
2022/05/24 08:43:23;;;;;;;5.43;3.25;;;;;;;41.69;24.24;94259.84;5098629;28;20177;-82
2022/05/24 08:48:44;;;;;;;6.50;3.65;;;;;;;41.52;24.46;94282.44;5052791;28;20284;-81
2022/05/24 08:51:17;;;;;;;9.38;3.80;;;;;;;41.47;24.32;94288.06;5051178;28;20187;-82
2022/05/24 08:53:50;;;;;;;6.85;3.47;;;;;;;41.26;24.78;94267.56;5051279;28;20666;-81
2022/05/24 08:56:20;;;;;;;4.10;3.60;;;;;;;41.03;24.83;94256.59;5049129;28;20195;-83
2022/05/24 08:58:51;;;;;;;4.95;3.72;;;;;;;41.00;24.66;94259.19;5049358;28;20218;-81
2022/05/24 09:01:23;;;;;;;8.63;3.65;;;;;;;40.99;24.61;94277.19;5048699;28;20253;-81
2022/05/24 09:03:50;;;;;;;4.13;3.72;;;;;;;40.85;25.31;94285.59;5049148;28;20222;-82
2022/05/24 09:06:31;;;;;;;4.63;3.67;;;;;;;40.71;25.02;94293.19;5048644;28;20218;-82
2022/05/24 09:09:09;;;;;;;3.60;3.15;;;;;;;40.51;25.27;94280.72;5049100;28;20183;-82
2022/05/24 09:11:49;;;;;;;5.03;3.45;;;;;;;40.40;25.44;94285.75;5048695;28;20191;-82
2022/05/24 09:14:26;;;;;;;8.88;3.90;;;;;;;40.12;25.32;94254.28;5048879;28;20254;-81
2022/05/24 09:17:01;;;;;;;6.82;4.13;;;;;;;40.01;25.70;94269.19;5049829;28;20677;-83
2022/05/24 09:19:35;;;;;;;6.63;3.47;;;;;;;39.85;25.83;94262.94;5048877;28;20214;-81
2022/05/24 09:22:03;;;;;;;6.32;3.53;;;;;;;39.63;25.72;94243.47;5057420;28;20198;-80
2022/05/24 09:24:41;;;;;;;4.55;3.63;;;;;;;39.54;26.10;94253.50;5090963;28;20193;-79
2022/05/24 09:27:13;;;;;;;6.22;3.85;;;;;;;39.20;26.14;94225.19;5091931;28;20181;-82
2022/05/24 09:29:59;;;;;;;4.97;3.58;;;;;;;39.17;26.26;94247.25;5090817;28;20197;-82
2022/05/24 09:32:34;;;;;;;6.85;3.70;;;;;;;38.82;26.27;94222.69;5090783;28;20199;-81
2022/05/24 09:35:04;;;;;;;8.95;4.43;;;;;;;38.92;26.59;94256.28;5090555;28;20237;-81
2022/05/24 09:37:31;;;;;;;6.68;3.80;;;;;;;38.76;26.64;94258.75;5091306;28;20185;-81
2022/05/24 09:40:00;;;;;;;5.60;4.05;;;;;;;38.30;26.98;94215.81;5090522;28;20186;-83
2022/05/24 09:42:31;;;;;;;6.13;3.22;;;;;;;38.21;27.10;94222.31;5091186;28;20272;-82
2022/05/24 09:45:02;;;;;;;7.07;3.83;;;;;;;38.32;27.04;94259.03;5090510;28;20229;-80
2022/05/24 09:47:33;;;;;;;7.93;3.40;;;;;;;38.21;27.24;94255.13;5090971;28;20200;-81
2022/05/24 09:50:22;;;;;;;6.68;3.80;;;;;;;38.09;27.35;94249.72;5091023;28;20194;-81
2022/05/24 09:53:09;;;;;;;4.03;3.65;;;;;;;37.97;27.68;94250.41;5090948;28;20231;-82
2022/05/24 09:55:41;;;;;;;5.63;4.38;;;;;;;37.90;27.79;94253.56;5090432;28;20182;-82
2022/05/24 09:58:25;;;;;;;6.13;3.80;;;;;;;37.85;27.89;94243.06;5090505;28;20734;-82
2022/05/24 10:00:56;;;;;;;5.50;3.55;;;;;;;37.67;27.82;94237.00;5090526;28;20231;-80
2022/05/24 10:03:27;;;;;;;7.28;4.00;;;;;;;37.56;28.12;94235.75;5090366;28;20182;-80
2022/05/24 10:06:12;;;;;;;4.25;3.80;;;;;;;37.29;28.27;94204.91;5090209;28;20201;-80
2022/05/24 10:08:43;;;;;;;8.15;4.22;;;;;;;37.32;28.25;94228.28;5089480;28;20664;-82
2022/05/24 10:11:21;;;;;;;4.60;4.00;;;;;;;37.31;28.60;94240.06;5090464;28;20189;-81
2022/05/24 10:14:00;;;;;;;7.00;4.32;;;;;;;37.09;28.69;94218.91;5090089;28;20193;-82
2022/05/24 10:16:34;;;;;;;4.40;3.83;;;;;;;37.08;28.57;94242.13;5090123;28;20189;-82
2022/05/24 10:19:19;;;;;;;4.45;3.63;;;;;;;36.88;28.68;94224.09;5089995;28;20612;-81
2022/05/24 10:21:56;;;;;;;7.55;4.47;;;;;;;36.90;28.60;94245.88;5089914;28;20197;-82
2022/05/24 10:24:35;;;;;;;9.13;4.35;;;;;;;36.81;28.82;94240.56;5090392;28;20581;-81
2022/05/24 10:27:13;;;;;;;8.15;4.32;;;;;;;36.72;29.06;94233.69;5090311;28;20197;-83
2022/05/24 10:29:51;;;;;;;9.15;4.10;;;;;;;36.64;29.05;94224.56;5090338;28;20201;-81
2022/05/24 10:38:23;;;;;;;7.38;4.57;;;;;;;36.36;29.47;94216.84;5090234;28;20715;-82
2022/05/24 10:41:01;;;;;;;16.73;4.63;;;;;;;36.08;29.52;94189.69;5089964;28;20189;-81
2022/05/24 10:43:49;;;;;;;8.65;4.57;;;;;;;36.18;29.78;94218.72;5090678;28;20192;-82
2022/05/24 10:46:22;;;;;;;7.30;4.47;;;;;;;36.08;29.63;94205.69;5090654;28;20273;-83
2022/05/24 10:48:59;;;;;;;8.80;4.07;;;;;;;36.00;30.18;94208.31;5095558;28;20190;-80
2022/05/24 10:51:32;;;;;;;6.40;5.10;;;;;;;35.91;29.93;94208.28;5102750;28;20197;-81
2022/05/24 10:54:02;;;;;;;5.85;4.28;;;;;;;35.82;30.10;94200.25;5090060;28;20193;-81
2022/05/24 10:56:36;;;;;;;5.28;4.22;;;;;;;35.66;30.32;94191.91;5090253;28;20191;-82
2022/05/24 10:59:12;;;;;;;5.82;4.55;;;;;;;35.65;30.65;94205.53;5090331;28;20288;-81
2022/05/24 11:01:45;;;;;;;6.38;4.45;;;;;;;35.58;30.57;94207.84;5089604;28;20186;-82
2022/05/24 11:04:17;;;;;;;7.28;4.43;;;;;;;35.39;30.86;94192.09;5090260;28;20181;-82
2022/05/24 11:06:49;;;;;;;7.60;4.05;;;;;;;35.38;30.78;94199.28;5089457;28;20192;-82
2022/05/24 11:09:19;;;;;;;7.70;4.28;;;;;;;35.33;30.88;94201.31;5090067;28;20208;-81
2022/05/24 11:11:52;;;;;;;7.50;4.03;;;;;;;34.89;31.27;94139.13;5089191;28;20276;-81
2022/05/24 11:14:27;;;;;;;5.97;4.22;;;;;;;35.18;31.02;94194.47;5089983;28;20295;-80
2022/05/24 11:16:57;;;;;;;8.07;4.72;;;;;;;34.97;31.36;94166.81;5089879;28;20188;-81
2022/05/24 11:19:26;;;;;;;7.75;4.43;;;;;;;35.01;31.69;94189.06;5089875;28;20308;-80
2022/05/24 11:22:04;;;;;;;6.35;4.72;;;;;;;34.80;31.51;94159.50;5093417;28;20193;-83
2022/05/24 11:24:40;;;;;;;8.30;4.43;;;;;;;34.43;32.04;94100.34;5093862;28;20660;-80
2022/05/24 11:27:08;;;;;;;8.02;4.82;;;;;;;34.76;31.87;94162.00;5093525;28;20242;-82
2022/05/24 11:29:44;;;;;;;8.57;4.80;;;;;;;34.40;31.88;94112.34;5094241;28;20204;-82
2022/05/24 11:32:19;;;;;;;6.13;4.65;;;;;;;34.63;32.15;94161.00;5093947;28;20188;-81
2022/05/24 11:34:58;;;;;;;8.32;4.45;;;;;;;34.52;32.21;94145.59;5093893;28;20356;-82
2022/05/24 11:37:28;;;;;;;8.27;4.97;;;;;;;34.52;32.46;94161.53;5093269;28;20665;-82
2022/05/24 11:39:55;;;;;;;8.23;4.22;;;;;;;34.45;32.46;94144.09;5093381;28;20228;-82
2022/05/24 11:42:43;;;;;;;10.25;4.30;;;;;;;33.69;32.60;94037.75;5096031;28;20190;-83
2022/05/24 11:45:55;;;;;;;6.78;4.72;;;;;;;34.35;32.68;94138.25;5094724;28;20198;-82
2022/05/24 11:48:39;;;;;;;6.93;4.70;;;;;;;34.28;32.83;94129.91;5050711;28;20279;-81
2022/05/24 11:51:39;;;;;;;6.47;4.43;;;;;;;34.19;32.82;94125.28;5050557;28;20199;-80
2022/05/24 11:54:08;;;;;;;7.22;4.30;;;;;;;34.00;32.77;94100.78;5010479;28;20196;-81
2022/05/24 11:56:38;;;;;;;8.30;5.03;;;;;;;33.98;33.24;94104.81;5010630;28;20200;-81
2022/05/24 11:59:07;;;;;;;7.22;4.50;;;;;;;34.04;33.32;94122.22;5010452;28;20239;-81
2022/05/24 12:01:54;;;;;;;6.35;4.60;;;;;;;34.02;33.18;94108.44;5010556;28;20184;-80
2022/05/24 12:10:42;;;;;;;4.90;4.32;;;;;;;34.01;33.27;94098.91;4932905;29;20303;-82
2022/05/24 12:13:28;;;;;;;6.60;4.70;;;;;;;34.02;33.59;94098.59;4933155;29;20230;-82
2022/05/24 12:15:57;;;;;;;6.20;4.50;;;;;;;34.03;33.35;94092.25;4933025;29;20199;-81
2022/05/24 12:18:37;;;;;;;6.22;4.60;;;;;;;33.97;33.12;94080.16;4933028;29;20201;-82
2022/05/24 12:21:05;;;;;;;6.53;4.25;;;;;;;34.02;33.34;94090.66;4932748;29;20206;-83
2022/05/24 12:23:39;;;;;;;5.43;4.88;;;;;;;34.00;33.23;94100.78;4953888;28;20201;-82
2022/05/24 12:26:07;;;;;;;8.55;4.90;;;;;;;33.97;33.02;94101.38;4990531;28;20211;-82